Time;durP1;ratioP1;P1;durP2;ratioP2;P2;SDS_P1;SDS_P2;PMS_P1;PMS_P2;Temp;Humidity;BMP_temperature;BMP_pressure;BME280_temperature;BME280_humidity;BME280_pressure;Samples;Min_cycle;Max_cycle;Signal;HPM_P1;HPM_P2
2021/09/09 00:01:58;;;;;;;13.18;2.97;;;;;;;;;;4990222;28;20478;-56
2021/09/09 00:04:24;;;;;;;18.08;3.42;;;;;;;;;;4989577;28;20042;-58
2021/09/09 00:06:50;;;;;;;24.52;3.38;;;;;;;;;;4991507;28;20160;-58
2021/09/09 00:09:17;;;;;;;10.93;3.13;;;;;;;;;;4992894;28;20045;-58
2021/09/09 00:11:43;;;;;;;13.45;3.40;;;;;;;;;;4989171;28;20046;-60
2021/09/09 00:14:09;;;;;;;10.20;2.80;;;;;;;;;;4991267;28;20347;-54
2021/09/09 00:16:35;;;;;;;14.45;3.30;;;;;;;;;;4990129;28;20050;-58
2021/09/09 00:19:01;;;;;;;15.02;3.60;;;;;;;;;;4990745;28;20100;-58
2021/09/09 00:21:27;;;;;;;12.32;3.78;;;;;;;;;;4987882;28;20504;-59
2021/09/09 00:23:52;;;;;;;10.18;3.20;;;;;;;;;;4976042;28;20061;-59
2021/09/09 00:26:18;;;;;;;16.52;3.47;;;;;;;;;;4985341;28;20049;-54
2021/09/09 00:28:44;;;;;;;13.23;3.65;;;;;;;;;;5019584;28;20870;-57
2021/09/09 00:31:10;;;;;;;14.70;3.90;;;;;;;;;;4990327;28;20073;-59
2021/09/09 00:33:36;;;;;;;9.43;3.60;;;;;;;;;;4987867;28;20042;-57
2021/09/09 00:36:05;;;;;;;9.20;3.40;;;;;;;;;;4986955;28;20049;-54
2021/09/09 00:38:31;;;;;;;11.27;3.28;;;;;;;;;;4995718;28;20050;-58
2021/09/09 00:41:00;;;;;;;12.45;3.70;;;;;;;;;;5003020;28;20034;-59
2021/09/09 00:43:26;;;;;;;12.25;3.50;;;;;;;;;;4990871;28;20046;-57
2021/09/09 00:45:52;;;;;;;10.68;3.25;;;;;;;;;;4993484;28;20040;-59
2021/09/09 00:48:19;;;;;;;14.63;3.80;;;;;;;;;;4993579;28;20064;-57
2021/09/09 00:50:45;;;;;;;12.50;3.90;;;;;;;;;;4988178;28;20053;-57
2021/09/09 00:53:11;;;;;;;19.17;3.70;;;;;;;;;;4989967;28;20566;-58
2021/09/09 00:55:37;;;;;;;11.30;3.83;;;;;;;;;;4986446;28;20046;-57
2021/09/09 00:58:03;;;;;;;28.23;4.20;;;;;;;;;;4988293;28;20058;-58
2021/09/09 01:00:29;;;;;;;16.30;3.33;;;;;;;;;;4986573;28;20462;-57
2021/09/09 01:02:55;;;;;;;17.27;4.03;;;;;;;;;;4988442;28;20042;-58
2021/09/09 01:05:21;;;;;;;11.48;3.47;;;;;;;;;;4985477;28;20204;-57
2021/09/09 01:07:47;;;;;;;14.63;5.53;;;;;;;;;;4989497;28;20029;-58
2021/09/09 01:10:13;;;;;;;9.10;3.65;;;;;;;;;;4989526;28;21041;-55
2021/09/09 01:12:39;;;;;;;9.98;3.55;;;;;;;;;;4999794;28;20053;-58
2021/09/09 01:15:05;;;;;;;14.73;3.80;;;;;;;;;;4989093;28;20109;-59
2021/09/09 01:17:31;;;;;;;18.50;4.93;;;;;;;;;;4988550;28;20068;-58
2021/09/09 01:19:57;;;;;;;15.35;4.80;;;;;;;;;;4994902;28;20490;-58
2021/09/09 01:22:22;;;;;;;16.30;4.00;;;;;;;;;;4992381;28;20128;-60
2021/09/09 01:24:48;;;;;;;15.55;4.03;;;;;;;;;;4990499;28;20283;-60
2021/09/09 01:27:17;;;;;;;10.48;3.60;;;;;;;;;;5007182;28;20056;-58
2021/09/09 01:29:43;;;;;;;11.65;4.53;;;;;;;;;;4997373;28;20474;-58
2021/09/09 01:32:09;;;;;;;10.65;4.03;;;;;;;;;;4990238;28;20108;-57
2021/09/09 01:34:35;;;;;;;20.17;3.95;;;;;;;;;;4988063;28;20046;-59
2021/09/09 01:37:01;;;;;;;16.65;4.22;;;;;;;;;;4994908;28;20096;-59
2021/09/09 01:39:27;;;;;;;14.75;4.07;;;;;;;;;;4987785;28;20169;-59
2021/09/09 01:41:54;;;;;;;16.15;4.13;;;;;;;;;;4985952;28;20030;-59
2021/09/09 01:44:20;;;;;;;23.90;4.82;;;;;;;;;;4987816;28;20734;-59
2021/09/09 01:46:47;;;;;;;18.27;4.50;;;;;;;;;;5021420;28;20452;-58
2021/09/09 01:49:13;;;;;;;15.75;4.20;;;;;;;;;;4991594;28;20047;-59
2021/09/09 01:51:38;;;;;;;23.70;4.30;;;;;;;;;;4987896;28;20050;-59
2021/09/09 01:54:04;;;;;;;15.50;4.47;;;;;;;;;;4986966;28;20108;-58
2021/09/09 01:56:30;;;;;;;17.90;4.30;;;;;;;;;;4986855;28;20053;-59
2021/09/09 01:58:56;;;;;;;19.27;3.92;;;;;;;;;;4987062;28;20109;-59
2021/09/09 02:01:22;;;;;;;24.60;4.78;;;;;;;;;;4987115;28;20064;-57
2021/09/09 02:03:49;;;;;;;23.42;3.85;;;;;;;;;;4987996;28;20053;-59
2021/09/09 02:06:14;;;;;;;18.50;4.00;;;;;;;;;;4987428;28;20099;-60
2021/09/09 02:08:40;;;;;;;20.00;5.80;;;;;;;;;;4987512;28;20938;-59
2021/09/09 02:11:06;;;;;;;18.75;5.88;;;;;;;;;;4986863;28;20044;-56
2021/09/09 02:13:32;;;;;;;21.88;6.25;;;;;;;;;;4985668;28;20133;-57
2021/09/09 02:15:58;;;;;;;16.50;6.25;;;;;;;;;;4986507;28;20050;-58
2021/09/09 02:18:24;;;;;;;18.60;6.43;;;;;;;;;;5004417;28;20108;-58
2021/09/09 02:20:50;;;;;;;13.02;6.38;;;;;;;;;;4993919;28;20038;-58
2021/09/09 02:23:16;;;;;;;16.25;6.00;;;;;;;;;;4987967;28;20037;-56
2021/09/09 02:25:42;;;;;;;14.57;6.78;;;;;;;;;;4985263;28;20403;-58
2021/09/09 02:28:08;;;;;;;13.68;6.32;;;;;;;;;;4987390;28;20054;-56
2021/09/09 02:30:34;;;;;;;14.35;6.60;;;;;;;;;;4987391;28;20030;-59
2021/09/09 02:32:59;;;;;;;21.27;5.95;;;;;;;;;;4987906;28;20201;-58
2021/09/09 02:35:25;;;;;;;13.30;5.65;;;;;;;;;;4985835;28;20081;-59
2021/09/09 02:37:51;;;;;;;14.20;6.40;;;;;;;;;;4987095;28;20050;-59
2021/09/09 02:40:17;;;;;;;16.67;6.63;;;;;;;;;;4987513;28;20132;-59
2021/09/09 02:42:43;;;;;;;13.15;6.30;;;;;;;;;;4988204;28;20034;-58
2021/09/09 02:45:12;;;;;;;17.95;7.30;;;;;;;;;;4996136;28;20136;-57
2021/09/09 02:47:38;;;;;;;15.43;7.32;;;;;;;;;;4997208;28;20056;-58
2021/09/09 02:50:05;;;;;;;19.00;7.82;;;;;;;;;;4989833;28;20057;-58
2021/09/09 02:52:31;;;;;;;16.90;7.13;;;;;;;;;;4987250;28;20077;-57
2021/09/09 02:54:57;;;;;;;19.35;6.93;;;;;;;;;;4988197;28;20170;-58
2021/09/09 02:57:23;;;;;;;17.80;7.38;;;;;;;;;;4986690;28;20492;-57
2021/09/09 02:59:49;;;;;;;14.90;6.82;;;;;;;;;;4992489;28;20502;-57
2021/09/09 03:02:15;;;;;;;15.90;7.70;;;;;;;;;;5002558;28;20045;-58
2021/09/09 03:04:41;;;;;;;17.85;7.63;;;;;;;;;;4997908;28;20038;-57
2021/09/09 03:07:07;;;;;;;15.90;7.82;;;;;;;;;;4990424;28;20042;-58
2021/09/09 03:09:33;;;;;;;15.23;8.13;;;;;;;;;;4996144;28;20676;-57
2021/09/09 03:11:58;;;;;;;17.88;8.32;;;;;;;;;;4995700;28;20039;-56
2021/09/09 03:14:24;;;;;;;17.88;8.23;;;;;;;;;;4989039;28;20042;-56
2021/09/09 03:16:50;;;;;;;20.85;8.10;;;;;;;;;;4996319;28;20042;-57
2021/09/09 03:19:16;;;;;;;12.88;7.28;;;;;;;;;;4990279;28;20046;-55
2021/09/09 03:21:42;;;;;;;17.73;8.00;;;;;;;;;;4986994;28;20026;-55
2021/09/09 03:24:08;;;;;;;15.73;8.38;;;;;;;;;;4995633;28;20073;-56
2021/09/09 03:26:37;;;;;;;20.52;8.63;;;;;;;;;;4986274;28;20073;-57
2021/09/09 03:29:03;;;;;;;16.48;8.38;;;;;;;;;;5019401;28;20030;-57
2021/09/09 03:31:29;;;;;;;20.05;9.68;;;;;;;;;;4991820;28;20053;-56
2021/09/09 03:33:55;;;;;;;15.95;8.70;;;;;;;;;;4991188;28;20071;-57
2021/09/09 03:36:21;;;;;;;20.85;10.52;;;;;;;;;;4993365;28;20089;-56
2021/09/09 03:38:47;;;;;;;17.30;8.57;;;;;;;;;;4994680;28;20112;-56
2021/09/09 03:41:13;;;;;;;17.60;9.10;;;;;;;;;;4995553;28;20042;-56
2021/09/09 03:43:39;;;;;;;16.70;8.73;;;;;;;;;;4996774;28;20043;-56
2021/09/09 03:46:05;;;;;;;21.20;9.15;;;;;;;;;;4998180;28;20064;-59
2021/09/09 03:48:31;;;;;;;21.10;8.90;;;;;;;;;;4998545;28;20034;-58
2021/09/09 03:50:57;;;;;;;18.05;9.05;;;;;;;;;;5000298;28;20046;-58
2021/09/09 03:53:23;;;;;;;22.00;9.75;;;;;;;;;;4995463;28;20677;-57
2021/09/09 03:55:49;;;;;;;16.85;8.48;;;;;;;;;;4993736;28;20092;-57
2021/09/09 03:58:15;;;;;;;23.98;9.60;;;;;;;;;;4995005;28;20057;-57
2021/09/09 04:00:40;;;;;;;27.38;9.52;;;;;;;;;;4992619;28;20045;-56
2021/09/09 04:03:06;;;;;;;19.17;9.20;;;;;;;;;;4992296;28;20039;-57
2021/09/09 04:05:32;;;;;;;20.00;9.20;;;;;;;;;;4991154;28;20037;-58
2021/09/09 04:07:58;;;;;;;20.23;9.25;;;;;;;;;;4999549;28;20478;-60
2021/09/09 04:10:25;;;;;;;20.73;9.50;;;;;;;;;;4996318;28;20118;-56
2021/09/09 04:12:51;;;;;;;22.00;9.20;;;;;;;;;;4991948;28;20050;-58
2021/09/09 04:15:17;;;;;;;19.35;9.38;;;;;;;;;;5000593;28;20046;-57
2021/09/09 04:17:43;;;;;;;17.67;9.93;;;;;;;;;;5028044;28;20760;-59
2021/09/09 04:20:09;;;;;;;18.20;9.13;;;;;;;;;;4989876;28;20046;-57
2021/09/09 04:22:35;;;;;;;23.00;10.68;;;;;;;;;;4990890;28;20069;-57
2021/09/09 04:25:02;;;;;;;24.65;9.38;;;;;;;;;;4994534;28;20672;-57
2021/09/09 04:27:30;;;;;;;19.90;9.75;;;;;;;;;;4993357;28;20046;-58
2021/09/09 04:29:57;;;;;;;20.63;10.18;;;;;;;;;;4996937;28;20042;-59
2021/09/09 04:32:22;;;;;;;25.55;9.60;;;;;;;;;;4990968;28;20037;-57
2021/09/09 04:34:48;;;;;;;18.67;9.18;;;;;;;;;;4991336;28;20156;-58
2021/09/09 04:37:14;;;;;;;17.35;9.20;;;;;;;;;;4992776;28;20061;-57
2021/09/09 04:39:40;;;;;;;21.48;10.10;;;;;;;;;;4992465;28;20046;-56
2021/09/09 04:42:06;;;;;;;19.30;10.20;;;;;;;;;;5001719;28;20045;-58
2021/09/09 04:44:32;;;;;;;21.02;10.00;;;;;;;;;;5000910;28;20049;-58
2021/09/09 04:46:58;;;;;;;19.25;10.18;;;;;;;;;;4997831;28;20045;-58
2021/09/09 04:49:24;;;;;;;21.02;10.23;;;;;;;;;;5013860;28;20090;-57
2021/09/09 04:51:50;;;;;;;18.73;9.85;;;;;;;;;;5023923;28;20205;-57
2021/09/09 04:54:16;;;;;;;20.67;10.10;;;;;;;;;;4994568;28;21004;-58
2021/09/09 04:56:42;;;;;;;22.70;10.38;;;;;;;;;;4997851;28;20043;-59
2021/09/09 04:59:08;;;;;;;19.98;10.38;;;;;;;;;;5000802;28;20656;-58
2021/09/09 05:01:33;;;;;;;19.23;10.23;;;;;;;;;;5002196;28;20073;-58
2021/09/09 05:03:59;;;;;;;19.80;10.27;;;;;;;;;;5002911;28;20060;-58
2021/09/09 05:06:28;;;;;;;19.48;10.70;;;;;;;;;;4998855;28;20565;-58
2021/09/09 05:08:54;;;;;;;23.58;10.75;;;;;;;;;;5000383;28;20778;-58
2021/09/09 05:11:20;;;;;;;26.15;10.43;;;;;;;;;;4994643;28;20053;-57
2021/09/09 05:13:46;;;;;;;23.00;11.27;;;;;;;;;;4992337;28;20545;-57
2021/09/09 05:16:12;;;;;;;21.58;11.05;;;;;;;;;;4991724;28;20054;-58
2021/09/09 05:18:37;;;;;;;24.92;10.95;;;;;;;;;;4991446;28;20108;-58
2021/09/09 05:21:03;;;;;;;18.55;9.85;;;;;;;;;;4991026;28;22054;-56
2021/09/09 05:23:29;;;;;;;19.63;9.70;;;;;;;;;;4992445;28;20034;-58
2021/09/09 05:25:55;;;;;;;26.67;10.70;;;;;;;;;;5019004;28;20740;-59
2021/09/09 05:28:21;;;;;;;22.00;10.23;;;;;;;;;;4988323;28;20054;-57
2021/09/09 05:30:47;;;;;;;21.35;10.02;;;;;;;;;;4989480;28;20039;-56
2021/09/09 05:33:13;;;;;;;24.20;10.10;;;;;;;;;;4989441;28;20111;-57
2021/09/09 05:35:44;;;;;;;23.17;10.52;;;;;;;;;;4987617;28;20034;-60
2021/09/09 05:38:10;;;;;;;20.98;10.25;;;;;;;;;;4988883;28;20050;-58
2021/09/09 05:40:36;;;;;;;20.00;10.30;;;;;;;;;;4989912;28;20045;-59
2021/09/09 05:43:02;;;;;;;19.77;10.68;;;;;;;;;;4993823;28;20407;-58
2021/09/09 05:45:28;;;;;;;20.67;9.52;;;;;;;;;;4986653;28;20108;-58
2021/09/09 05:47:54;;;;;;;20.98;10.65;;;;;;;;;;4989872;28;20049;-57
2021/09/09 05:50:19;;;;;;;19.58;9.65;;;;;;;;;;4990144;28;20031;-58
2021/09/09 05:52:45;;;;;;;19.80;10.52;;;;;;;;;;4991095;28;20443;-59
2021/09/09 05:55:12;;;;;;;20.65;10.10;;;;;;;;;;4988763;28;20038;-58
2021/09/09 05:57:38;;;;;;;20.05;10.43;;;;;;;;;;4993493;28;20042;-59
2021/09/09 06:00:04;;;;;;;22.95;10.68;;;;;;;;;;4993737;28;20054;-57
2021/09/09 06:02:30;;;;;;;21.30;10.80;;;;;;;;;;4988796;28;20065;-58
2021/09/09 06:04:57;;;;;;;20.50;10.88;;;;;;;;;;4988039;28;20077;-59
2021/09/09 06:07:23;;;;;;;19.77;10.20;;;;;;;;;;4995827;28;20511;-58
2021/09/09 06:09:49;;;;;;;23.48;10.88;;;;;;;;;;4986519;28;20108;-59
2021/09/09 06:12:15;;;;;;;21.17;10.10;;;;;;;;;;4990087;28;20038;-58
2021/09/09 06:14:41;;;;;;;26.95;11.23;;;;;;;;;;4990107;28;20080;-55
2021/09/09 06:17:06;;;;;;;21.80;10.40;;;;;;;;;;4988648;28;20057;-58
2021/09/09 06:19:33;;;;;;;23.50;10.45;;;;;;;;;;4987405;28;20042;-58
2021/09/09 06:21:59;;;;;;;23.17;11.15;;;;;;;;;;4994642;28;20048;-57
2021/09/09 06:24:25;;;;;;;21.77;10.65;;;;;;;;;;4991840;28;20046;-58
2021/09/09 06:26:51;;;;;;;21.92;10.15;;;;;;;;;;4988429;28;20139;-58
2021/09/09 06:29:17;;;;;;;27.30;10.98;;;;;;;;;;4988632;28;20049;-59
2021/09/09 06:31:43;;;;;;;21.80;10.20;;;;;;;;;;4988654;28;20045;-57
2021/09/09 06:34:09;;;;;;;22.42;10.07;;;;;;;;;;4987072;28;20100;-57
2021/09/09 06:36:35;;;;;;;29.63;10.75;;;;;;;;;;4995649;28;20034;-59
2021/09/09 06:39:01;;;;;;;21.90;10.55;;;;;;;;;;4988568;28;20042;-59
2021/09/09 06:41:27;;;;;;;24.38;10.82;;;;;;;;;;4995233;28;20084;-57
2021/09/09 06:43:53;;;;;;;22.38;10.13;;;;;;;;;;4996533;28;20046;-60
2021/09/09 06:46:19;;;;;;;23.35;10.82;;;;;;;;;;4989983;28;20141;-59
2021/09/09 06:48:45;;;;;;;19.77;10.73;;;;;;;;;;4994544;28;20046;-59
2021/09/09 06:51:11;;;;;;;23.50;10.70;;;;;;;;;;4994708;28;20034;-59
2021/09/09 06:53:38;;;;;;;20.13;9.70;;;;;;;;;;4998537;28;20097;-59
2021/09/09 06:56:04;;;;;;;21.25;9.95;;;;;;;;;;4998675;28;20502;-60
2021/09/09 06:58:29;;;;;;;26.50;10.32;;;;;;;;;;5002014;28;20049;-59
2021/09/09 07:00:55;;;;;;;20.83;10.13;;;;;;;;;;5000779;28;20045;-59
2021/09/09 07:03:21;;;;;;;20.40;9.95;;;;;;;;;;4997483;28;20105;-58
2021/09/09 07:05:47;;;;;;;21.58;9.93;;;;;;;;;;4993672;28;20559;-58
2021/09/09 07:08:13;;;;;;;20.35;9.38;;;;;;;;;;4994371;28;20152;-58
2021/09/09 07:10:38;;;;;;;22.30;10.63;;;;;;;;;;4992233;28;20043;-59
2021/09/09 07:13:04;;;;;;;25.13;9.90;;;;;;;;;;4992105;28;20414;-58
2021/09/09 07:15:30;;;;;;;19.55;10.43;;;;;;;;;;4989912;28;20176;-59
2021/09/09 07:17:56;;;;;;;22.73;10.38;;;;;;;;;;4993614;28;20170;-57
2021/09/09 07:20:22;;;;;;;22.10;10.60;;;;;;;;;;4990827;28;20153;-58
2021/09/09 07:22:47;;;;;;;23.58;10.13;;;;;;;;;;4992447;28;20082;-59
2021/09/09 07:25:13;;;;;;;18.40;10.13;;;;;;;;;;4988151;28;20869;-59
2021/09/09 07:27:39;;;;;;;20.95;9.63;;;;;;;;;;4991012;28;20043;-60
2021/09/09 07:30:05;;;;;;;19.20;9.85;;;;;;;;;;4990901;28;20045;-59
2021/09/09 07:35:35;;;;;;;24.33;10.55;;;;;;;;;;4985611;28;20554;-57
2021/09/09 07:38:01;;;;;;;23.88;10.05;;;;;;;;;;4990176;28;20041;-57
2021/09/09 07:40:27;;;;;;;21.90;10.40;;;;;;;;;;4990161;28;20610;-57
2021/09/09 07:42:52;;;;;;;26.48;10.73;;;;;;;;;;4991090;28;20153;-58
2021/09/09 07:45:18;;;;;;;20.73;10.85;;;;;;;;;;4989575;28;21137;-59
2021/09/09 07:47:44;;;;;;;20.27;10.35;;;;;;;;;;4991258;28;20066;-57
2021/09/09 07:50:11;;;;;;;20.70;10.40;;;;;;;;;;4991294;28;20165;-58
2021/09/09 07:52:37;;;;;;;20.85;9.70;;;;;;;;;;4993034;28;20493;-58
2021/09/09 07:55:03;;;;;;;22.13;10.35;;;;;;;;;;4993054;28;20403;-55
2021/09/09 07:57:29;;;;;;;21.58;10.40;;;;;;;;;;5021287;28;20042;-57
2021/09/09 07:59:55;;;;;;;20.73;9.52;;;;;;;;;;4993355;28;20049;-56
2021/09/09 08:02:21;;;;;;;20.92;9.63;;;;;;;;;;4995220;28;20046;-57
2021/09/09 08:04:46;;;;;;;21.55;10.18;;;;;;;;;;4991701;28;20056;-53
2021/09/09 08:07:12;;;;;;;24.10;9.32;;;;;;;;;;4993355;28;20479;-57
2021/09/09 08:09:38;;;;;;;21.75;10.98;;;;;;;;;;4992204;28;20053;-57
2021/09/09 08:12:04;;;;;;;24.98;10.55;;;;;;;;;;4992189;28;20042;-57
2021/09/09 08:14:30;;;;;;;18.80;9.88;;;;;;;;;;4990910;28;20042;-57
2021/09/09 08:16:56;;;;;;;19.08;10.20;;;;;;;;;;4989130;28;20060;-56
2021/09/09 08:19:22;;;;;;;20.52;10.25;;;;;;;;;;4991258;28;20058;-59
2021/09/09 08:21:47;;;;;;;20.00;10.27;;;;;;;;;;4992692;28;20070;-56
2021/09/09 08:24:13;;;;;;;17.45;9.63;;;;;;;;;;4993950;28;20038;-54
2021/09/09 08:26:39;;;;;;;22.08;9.65;;;;;;;;;;4990288;28;20554;-59
2021/09/09 08:29:05;;;;;;;18.85;9.73;;;;;;;;;;4989479;28;20140;-61
2021/09/09 08:31:31;;;;;;;22.08;9.57;;;;;;;;;;4986696;28;20042;-59
2021/09/09 08:33:57;;;;;;;17.90;9.52;;;;;;;;;;4989113;28;20071;-58
2021/09/09 08:36:24;;;;;;;24.42;9.82;;;;;;;;;;4987907;28;20096;-58
2021/09/09 08:38:50;;;;;;;20.10;9.88;;;;;;;;;;4993951;28;20080;-58
2021/09/09 08:41:15;;;;;;;24.85;10.10;;;;;;;;;;4993633;28;20379;-59
2021/09/09 08:43:41;;;;;;;21.15;10.00;;;;;;;;;;4988185;28;20034;-60
2021/09/09 08:46:11;;;;;;;15.52;8.85;;;;;;;;;;5001806;28;20498;-60
2021/09/09 08:48:37;;;;;;;23.10;9.73;;;;;;;;;;5007929;28;20072;-59
2021/09/09 08:51:03;;;;;;;19.20;9.73;;;;;;;;;;4999408;28;20212;-59
2021/09/09 08:53:30;;;;;;;19.45;9.52;;;;;;;;;;4988936;28;20038;-61
2021/09/09 08:55:56;;;;;;;18.02;9.00;;;;;;;;;;5010609;28;20121;-60
2021/09/09 08:58:21;;;;;;;20.77;9.77;;;;;;;;;;4988837;28;20052;-58
2021/09/09 09:01:13;;;;;;;20.88;9.32;;;;;;;;;;4988414;28;20049;-60
2021/09/09 09:03:44;;;;;;;17.85;9.15;;;;;;;;;;4998223;28;20034;-60
2021/09/09 09:06:22;;;;;;;16.85;8.48;;;;;;;;;;4991050;28;20057;-59
2021/09/09 09:08:54;;;;;;;20.02;8.65;;;;;;;;;;4989392;28;20867;-59
2021/09/09 09:11:24;;;;;;;18.02;8.93;;;;;;;;;;4989199;28;20052;-60
2021/09/09 09:13:50;;;;;;;18.02;8.73;;;;;;;;;;4990058;28;20119;-60
2021/09/09 09:16:16;;;;;;;16.42;7.95;;;;;;;;;;4990430;28;20038;-60
2021/09/09 09:18:43;;;;;;;20.60;9.75;;;;;;;;;;4986061;28;20085;-58
2021/09/09 09:21:09;;;;;;;19.33;9.55;;;;;;;;;;4989749;28;20042;-59
2021/09/09 09:23:35;;;;;;;20.67;9.02;;;;;;;;;;4995136;28;20486;-59
2021/09/09 09:26:03;;;;;;;16.52;8.57;;;;;;;;;;5003878;28;20064;-59
2021/09/09 09:28:38;;;;;;;21.67;9.40;;;;;;;;;;4990338;28;20058;-58
2021/09/09 09:31:05;;;;;;;19.30;9.80;;;;;;;;;;4995240;28;20073;-59
2021/09/09 09:33:32;;;;;;;18.80;8.77;;;;;;;;;;4989099;28;20467;-58
2021/09/09 09:36:18;;;;;;;20.63;9.35;;;;;;;;;;4985184;28;20479;-60
2021/09/09 09:38:44;;;;;;;20.27;9.65;;;;;;;;;;4999293;28;20049;-58
2021/09/09 09:41:11;;;;;;;18.27;9.23;;;;;;;;;;4989955;28;20045;-59
2021/09/09 09:43:37;;;;;;;16.00;8.43;;;;;;;;;;4989272;28;20542;-58
2021/09/09 09:46:05;;;;;;;22.52;9.10;;;;;;;;;;4987275;28;20042;-59
2021/09/09 09:48:33;;;;;;;18.40;9.57;;;;;;;;;;4986144;28;20077;-59
2021/09/09 09:51:02;;;;;;;20.05;9.60;;;;;;;;;;4995310;28;20057;-59
2021/09/09 09:53:29;;;;;;;18.48;8.50;;;;;;;;;;4988132;28;20042;-60
2021/09/09 09:55:55;;;;;;;19.15;9.57;;;;;;;;;;4985100;28;20110;-60
2021/09/09 09:58:21;;;;;;;17.05;8.73;;;;;;;;;;4987084;28;20416;-60
2021/09/09 10:00:47;;;;;;;18.42;9.07;;;;;;;;;;4986457;28;20035;-60
2021/09/09 10:03:14;;;;;;;21.85;9.40;;;;;;;;;;4987358;28;20299;-59
2021/09/09 10:05:40;;;;;;;19.52;9.90;;;;;;;;;;4995377;28;20049;-62
2021/09/09 10:08:06;;;;;;;17.38;9.02;;;;;;;;;;4990216;28;20041;-58
2021/09/09 10:10:32;;;;;;;18.23;8.98;;;;;;;;;;4989176;28;20108;-59
2021/09/09 10:12:59;;;;;;;18.05;9.02;;;;;;;;;;4989596;28;20034;-59
2021/09/09 10:15:25;;;;;;;21.33;9.32;;;;;;;;;;4990104;28;20065;-59
2021/09/09 10:17:52;;;;;;;17.85;8.80;;;;;;;;;;4990868;28;20065;-59
2021/09/09 10:20:28;;;;;;;21.40;9.75;;;;;;;;;;4988298;28;20041;-59
2021/09/09 10:23:04;;;;;;;23.88;10.15;;;;;;;;;;4988723;28;20575;-59
2021/09/09 10:25:44;;;;;;;20.85;8.98;;;;;;;;;;4986946;28;20152;-59
2021/09/09 10:28:29;;;;;;;22.83;10.02;;;;;;;;;;4989364;28;20042;-60
2021/09/09 10:31:02;;;;;;;19.38;9.60;;;;;;;;;;4994247;28;20038;-57
2021/09/09 10:33:27;;;;;;;;;;;;;;;;;;4987545;28;20050;-59
2021/09/09 10:35:53;;;;;;;21.80;9.85;;;;;;;;;;4998190;28;19922;-58
2021/09/09 10:38:19;;;;;;;21.58;10.35;;;;;;;;;;4988109;28;20069;-61
2021/09/09 10:40:46;;;;;;;22.98;10.32;;;;;;;;;;4991121;28;20037;-60
2021/09/09 10:43:12;;;;;;;21.40;9.02;;;;;;;;;;4990784;28;20038;-59
2021/09/09 10:45:38;;;;;;;24.10;9.65;;;;;;;;;;4988446;28;20046;-60
2021/09/09 10:48:05;;;;;;;18.95;9.18;;;;;;;;;;4988060;28;20503;-60
2021/09/09 10:50:32;;;;;;;18.15;9.63;;;;;;;;;;4986993;28;20038;-61
2021/09/09 10:53:12;;;;;;;21.05;10.02;;;;;;;;;;4988033;28;20399;-57
2021/09/09 10:55:47;;;;;;;21.15;10.07;;;;;;;;;;4985964;28;20452;-58
2021/09/09 10:58:25;;;;;;;21.13;10.30;;;;;;;;;;4988930;28;20129;-58
2021/09/09 11:01:05;;;;;;;23.23;10.57;;;;;;;;;;4983589;28;20112;-56
2021/09/09 11:03:46;;;;;;;23.13;9.77;;;;;;;;;;4985866;28;20503;-57
2021/09/09 11:06:11;;;;;;;19.05;10.15;;;;;;;;;;4985930;28;20154;-59
2021/09/09 11:08:38;;;;;;;21.60;9.95;;;;;;;;;;4985790;28;20045;-54
2021/09/09 11:11:05;;;;;;;19.17;9.68;;;;;;;;;;4987941;28;20471;-57
2021/09/09 11:13:36;;;;;;;22.48;10.35;;;;;;;;;;4987800;28;20065;-61
2021/09/09 11:16:16;;;;;;;24.10;9.55;;;;;;;;;;4985346;28;20083;-56
2021/09/09 11:18:43;;;;;;;21.50;9.90;;;;;;;;;;4986279;28;20084;-59
2021/09/09 11:21:09;;;;;;;24.25;10.35;;;;;;;;;;4986280;28;20093;-60
2021/09/09 11:23:35;;;;;;;17.75;10.02;;;;;;;;;;4985633;28;20565;-59
2021/09/09 11:26:09;;;;;;;18.52;9.75;;;;;;;;;;4985349;28;20427;-59
2021/09/09 11:28:35;;;;;;;26.95;10.27;;;;;;;;;;4985853;28;20060;-59
2021/09/09 11:31:26;;;;;;;21.48;10.07;;;;;;;;;;4986022;28;20957;-59
2021/09/09 11:33:59;;;;;;;23.60;10.00;;;;;;;;;;4988452;28;20474;-60
2021/09/09 11:36:25;;;;;;;19.92;9.90;;;;;;;;;;4986125;28;20057;-59
2021/09/09 11:38:52;;;;;;;25.75;10.45;;;;;;;;;;4987984;28;20229;-58
2021/09/09 11:41:19;;;;;;;20.25;10.32;;;;;;;;;;4988065;28;20491;-59
2021/09/09 11:43:50;;;;;;;22.85;10.88;;;;;;;;;;4988241;28;20038;-59
2021/09/09 11:46:25;;;;;;;25.27;11.02;;;;;;;;;;4992791;28;21024;-58
2021/09/09 11:48:52;;;;;;;18.92;10.25;;;;;;;;;;4997961;28;20170;-58
2021/09/09 11:51:30;;;;;;;24.60;11.10;;;;;;;;;;4989999;28;20510;-56
2021/09/09 11:53:56;;;;;;;23.33;10.25;;;;;;;;;;4995810;28;20596;-59
2021/09/09 11:56:23;;;;;;;21.90;10.88;;;;;;;;;;4993340;28;20042;-58
2021/09/09 11:58:49;;;;;;;25.90;10.35;;;;;;;;;;5020864;28;20053;-59
2021/09/09 12:01:15;;;;;;;26.70;10.18;;;;;;;;;;4988119;28;20038;-59
2021/09/09 12:06:44;;;;;;;23.90;10.50;;;;;;;;;;4989901;28;20461;-58
2021/09/09 12:09:10;;;;;;;22.55;10.25;;;;;;;;;;4988323;28;20038;-58
2021/09/09 12:11:36;;;;;;;27.23;10.48;;;;;;;;;;4990074;28;20040;-57
2021/09/09 12:14:18;;;;;;;23.15;9.90;;;;;;;;;;4992332;28;20391;-59
2021/09/09 12:16:44;;;;;;;22.92;10.93;;;;;;;;;;4989486;28;20157;-58
2021/09/09 12:19:11;;;;;;;21.33;9.95;;;;;;;;;;4989076;28;20137;-60
2021/09/09 12:21:57;;;;;;;25.77;11.93;;;;;;;;;;4989390;28;20030;-58
2021/09/09 12:24:31;;;;;;;26.25;11.32;;;;;;;;;;4988295;28;20038;-59
2021/09/09 12:26:59;;;;;;;25.58;11.45;;;;;;;;;;4986990;28;20629;-57
2021/09/09 12:29:25;;;;;;;33.55;11.57;;;;;;;;;;4987380;28;20038;-61
2021/09/09 12:31:50;;;;;;;24.15;10.57;;;;;;;;;;4989781;28;20401;-54
2021/09/09 12:34:17;;;;;;;27.67;10.90;;;;;;;;;;4987836;28;20069;-55
2021/09/09 12:36:51;;;;;;;25.90;11.60;;;;;;;;;;4989321;28;20124;-59
2021/09/09 12:39:19;;;;;;;;;;;;;;;;;;4986133;28;20054;-59
2021/09/09 12:41:45;;;;;;;25.70;11.85;;;;;;;;;;4999851;28;19925;-57
2021/09/09 12:44:13;;;;;;;27.05;11.68;;;;;;;;;;5001333;28;20033;-57
2021/09/09 12:46:41;;;;;;;30.38;11.93;;;;;;;;;;4988323;28;20888;-60
2021/09/09 12:49:22;;;;;;;26.98;11.73;;;;;;;;;;4988579;28;20077;-59
2021/09/09 12:52:06;;;;;;;24.88;11.05;;;;;;;;;;5004352;28;20046;-59
2021/09/09 12:54:36;;;;;;;24.10;10.60;;;;;;;;;;4988026;28;20066;-60
2021/09/09 12:57:02;;;;;;;24.05;11.27;;;;;;;;;;4987731;28;20052;-60
2021/09/09 12:59:30;;;;;;;28.17;12.30;;;;;;;;;;4982687;28;20050;-61
2021/09/09 13:01:56;;;;;;;27.80;11.30;;;;;;;;;;4982081;28;20050;-59
2021/09/09 13:04:21;;;;;;;31.17;11.80;;;;;;;;;;4983074;28;20053;-57
2021/09/09 13:06:47;;;;;;;24.80;11.85;;;;;;;;;;4988194;28;20042;-58
2021/09/09 13:09:13;;;;;;;24.80;11.80;;;;;;;;;;4990495;28;20061;-59
2021/09/09 13:11:39;;;;;;;30.88;11.65;;;;;;;;;;4989886;28;20042;-59
2021/09/09 13:14:05;;;;;;;30.70;12.50;;;;;;;;;;4989215;28;21258;-59
2021/09/09 13:16:31;;;;;;;26.33;12.55;;;;;;;;;;4991566;28;20046;-60
2021/09/09 13:19:17;;;;;;;25.67;11.88;;;;;;;;;;5010042;28;20058;-59
2021/09/09 13:21:45;;;;;;;25.80;12.38;;;;;;;;;;5030945;28;20667;-60
2021/09/09 13:24:11;;;;;;;26.13;11.95;;;;;;;;;;5031161;28;20065;-60
2021/09/09 13:26:37;;;;;;;32.95;12.40;;;;;;;;;;5031593;28;20076;-60
2021/09/09 13:29:03;;;;;;;22.50;11.68;;;;;;;;;;5032141;28;20072;-59
2021/09/09 13:31:29;;;;;;;33.03;13.00;;;;;;;;;;5029740;28;20070;-59
2021/09/09 13:33:59;;;;;;;22.27;11.43;;;;;;;;;;5031136;28;20445;-59
2021/09/09 13:36:25;;;;;;;27.42;12.23;;;;;;;;;;5033170;28;20108;-57
2021/09/09 13:38:51;;;;;;;27.02;12.48;;;;;;;;;;5031140;28;20055;-59
2021/09/09 13:41:17;;;;;;;26.85;11.82;;;;;;;;;;5030448;28;20032;-58
2021/09/09 13:43:43;;;;;;;28.17;11.70;;;;;;;;;;5029623;28;20481;-58
2021/09/09 13:46:09;;;;;;;28.65;11.73;;;;;;;;;;5027992;28;20080;-59
2021/09/09 13:48:35;;;;;;;29.77;12.10;;;;;;;;;;5013889;28;20060;-59
2021/09/09 13:51:00;;;;;;;32.55;11.88;;;;;;;;;;5030151;28;20128;-59
2021/09/09 13:53:26;;;;;;;25.63;10.80;;;;;;;;;;5028517;28;20034;-59
2021/09/09 13:55:53;;;;;;;24.05;11.15;;;;;;;;;;5025535;28;20072;-59
2021/09/09 13:58:19;;;;;;;23.73;11.23;;;;;;;;;;4988778;28;20030;-59
2021/09/09 14:00:45;;;;;;;28.08;11.50;;;;;;;;;;4985854;28;20515;-59
2021/09/09 14:03:10;;;;;;;20.90;9.93;;;;;;;;;;4986267;28;20101;-58
2021/09/09 14:05:36;;;;;;;32.80;12.38;;;;;;;;;;4989667;28;20058;-60
2021/09/09 14:08:02;;;;;;;26.35;12.10;;;;;;;;;;5018209;28;20065;-59
2021/09/09 14:10:28;;;;;;;28.88;11.98;;;;;;;;;;4988267;28;20053;-59
2021/09/09 14:12:54;;;;;;;21.50;11.18;;;;;;;;;;4987255;28;20094;-59
2021/09/09 14:15:21;;;;;;;23.48;10.60;;;;;;;;;;4987441;28;20510;-58
2021/09/09 14:17:47;;;;;;;22.30;11.10;;;;;;;;;;4987280;28;20042;-59
2021/09/09 14:20:13;;;;;;;28.20;12.18;;;;;;;;;;4988384;28;20046;-58
2021/09/09 14:22:39;;;;;;;22.77;10.80;;;;;;;;;;4987290;28;20049;-57
2021/09/09 14:25:07;;;;;;;23.02;10.88;;;;;;;;;;4986690;28;20038;-59
2021/09/09 14:27:33;;;;;;;26.90;11.95;;;;;;;;;;4985921;28;20042;-59
2021/09/09 14:29:58;;;;;;;22.27;11.75;;;;;;;;;;4985384;28;20046;-59
2021/09/09 14:32:24;;;;;;;22.60;10.57;;;;;;;;;;4984089;28;20042;-60